sensor_id;sensor_type;location;lat;lon;timestamp;P1;durP1;ratioP1;P2;durP2;ratioP2
23952;SDS011;12163;49.316;6.092;2022-12-20T00:00:51;27.63;;;14.85;;
23952;SDS011;12163;49.316;6.092;2022-12-20T00:03:18;25.05;;;15.25;;
23952;SDS011;12163;49.316;6.092;2022-12-20T00:05:45;23.77;;;14.52;;
23952;SDS011;12163;49.316;6.092;2022-12-20T00:08:12;33.33;;;16.65;;
23952;SDS011;12163;49.316;6.092;2022-12-20T00:10:40;26.52;;;14.07;;
23952;SDS011;12163;49.316;6.092;2022-12-20T00:13:08;26.30;;;14.52;;
23952;SDS011;12163;49.316;6.092;2022-12-20T00:15:35;29.73;;;15.48;;
23952;SDS011;12163;49.316;6.092;2022-12-20T00:18:02;27.20;;;14.88;;
23952;SDS011;12163;49.316;6.092;2022-12-20T00:20:29;32.88;;;16.25;;
23952;SDS011;12163;49.316;6.092;2022-12-20T00:22:56;22.95;;;13.93;;
23952;SDS011;12163;49.316;6.092;2022-12-20T00:25:23;24.52;;;12.88;;
23952;SDS011;12163;49.316;6.092;2022-12-20T00:27:49;25.17;;;12.38;;
23952;SDS011;12163;49.316;6.092;2022-12-20T00:30:16;32.85;;;15.70;;
23952;SDS011;12163;49.316;6.092;2022-12-20T00:32:43;32.13;;;14.35;;
23952;SDS011;12163;49.316;6.092;2022-12-20T00:35:10;22.00;;;13.73;;
23952;SDS011;12163;49.316;6.092;2022-12-20T00:37:38;29.27;;;14.15;;
23952;SDS011;12163;49.316;6.092;2022-12-20T00:40:05;30.70;;;15.32;;
23952;SDS011;12163;49.316;6.092;2022-12-20T00:42:32;33.40;;;16.75;;
23952;SDS011;12163;49.316;6.092;2022-12-20T00:44:58;26.98;;;14.90;;
23952;SDS011;12163;49.316;6.092;2022-12-20T00:47:25;35.03;;;17.17;;
23952;SDS011;12163;49.316;6.092;2022-12-20T00:49:52;27.98;;;18.92;;
23952;SDS011;12163;49.316;6.092;2022-12-20T00:52:18;43.45;;;18.75;;
23952;SDS011;12163;49.316;6.092;2022-12-20T00:54:45;34.25;;;17.20;;
23952;SDS011;12163;49.316;6.092;2022-12-20T00:57:11;32.67;;;15.90;;
23952;SDS011;12163;49.316;6.092;2022-12-20T00:59:38;31.50;;;15.63;;
23952;SDS011;12163;49.316;6.092;2022-12-20T01:02:04;26.95;;;14.38;;
23952;SDS011;12163;49.316;6.092;2022-12-20T01:04:31;31.27;;;14.55;;
23952;SDS011;12163;49.316;6.092;2022-12-20T01:06:58;38.47;;;15.65;;
23952;SDS011;12163;49.316;6.092;2022-12-20T01:09:24;35.70;;;18.00;;
23952;SDS011;12163;49.316;6.092;2022-12-20T01:11:51;27.08;;;13.43;;
23952;SDS011;12163;49.316;6.092;2022-12-20T01:14:18;26.55;;;11.15;;
23952;SDS011;12163;49.316;6.092;2022-12-20T01:16:45;19.83;;;10.77;;
23952;SDS011;12163;49.316;6.092;2022-12-20T01:19:13;23.17;;;13.68;;
23952;SDS011;12163;49.316;6.092;2022-12-20T01:21:41;29.35;;;16.33;;
23952;SDS011;12163;49.316;6.092;2022-12-20T01:24:12;36.42;;;19.60;;
23952;SDS011;12163;49.316;6.092;2022-12-20T01:26:40;43.45;;;21.60;;
23952;SDS011;12163;49.316;6.092;2022-12-20T01:29:08;28.15;;;16.23;;
23952;SDS011;12163;49.316;6.092;2022-12-20T01:31:34;36.78;;;18.58;;
23952;SDS011;12163;49.316;6.092;2022-12-20T01:34:02;44.17;;;20.30;;
23952;SDS011;12163;49.316;6.092;2022-12-20T01:36:30;37.35;;;17.33;;
23952;SDS011;12163;49.316;6.092;2022-12-20T01:39:10;29.10;;;15.23;;
23952;SDS011;12163;49.316;6.092;2022-12-20T01:41:40;34.47;;;15.43;;
23952;SDS011;12163;49.316;6.092;2022-12-20T01:46:45;29.92;;;18.20;;
23952;SDS011;12163;49.316;6.092;2022-12-20T01:49:15;33.40;;;17.77;;
23952;SDS011;12163;49.316;6.092;2022-12-20T01:51:49;31.95;;;16.45;;
23952;SDS011;12163;49.316;6.092;2022-12-20T01:54:26;31.70;;;18.40;;
23952;SDS011;12163;49.316;6.092;2022-12-20T01:57:05;34.50;;;18.25;;
23952;SDS011;12163;49.316;6.092;2022-12-20T01:59:37;26.73;;;16.42;;
23952;SDS011;12163;49.316;6.092;2022-12-20T02:02:06;32.72;;;18.65;;
23952;SDS011;12163;49.316;6.092;2022-12-20T02:04:36;38.95;;;21.73;;
23952;SDS011;12163;49.316;6.092;2022-12-20T02:07:03;38.05;;;20.27;;
23952;SDS011;12163;49.316;6.092;2022-12-20T02:09:31;35.28;;;16.38;;
23952;SDS011;12163;49.316;6.092;2022-12-20T02:12:23;30.77;;;16.55;;
23952;SDS011;12163;49.316;6.092;2022-12-20T02:14:55;31.85;;;15.57;;
23952;SDS011;12163;49.316;6.092;2022-12-20T02:17:53;37.78;;;15.90;;
23952;SDS011;12163;49.316;6.092;2022-12-20T02:31:18;30.50;;;19.02;;
23952;SDS011;12163;49.316;6.092;2022-12-20T02:33:50;29.83;;;15.77;;
23952;SDS011;12163;49.316;6.092;2022-12-20T02:36:18;35.08;;;13.80;;
23952;SDS011;12163;49.316;6.092;2022-12-20T02:38:45;29.45;;;11.93;;
23952;SDS011;12163;49.316;6.092;2022-12-20T02:44:14;41.67;;;20.83;;
23952;SDS011;12163;49.316;6.092;2022-12-20T02:47:04;41.60;;;21.08;;
23952;SDS011;12163;49.316;6.092;2022-12-20T02:49:34;44.53;;;20.05;;
23952;SDS011;12163;49.316;6.092;2022-12-20T02:52:06;44.70;;;23.73;;
23952;SDS011;12163;49.316;6.092;2022-12-20T02:54:36;49.00;;;25.40;;
23952;SDS011;12163;49.316;6.092;2022-12-20T02:57:14;37.15;;;19.33;;
23952;SDS011;12163;49.316;6.092;2022-12-20T02:59:49;25.75;;;13.45;;
23952;SDS011;12163;49.316;6.092;2022-12-20T03:02:17;42.13;;;20.77;;
23952;SDS011;12163;49.316;6.092;2022-12-20T03:04:44;35.47;;;16.38;;
23952;SDS011;12163;49.316;6.092;2022-12-20T03:07:12;40.75;;;15.57;;
23952;SDS011;12163;49.316;6.092;2022-12-20T03:09:40;35.65;;;16.58;;
23952;SDS011;12163;49.316;6.092;2022-12-20T03:12:09;45.22;;;23.30;;
23952;SDS011;12163;49.316;6.092;2022-12-20T03:14:37;34.55;;;19.30;;
23952;SDS011;12163;49.316;6.092;2022-12-20T03:17:05;43.83;;;20.08;;
23952;SDS011;12163;49.316;6.092;2022-12-20T03:19:32;43.20;;;18.00;;
23952;SDS011;12163;49.316;6.092;2022-12-20T03:21:58;47.72;;;19.83;;
23952;SDS011;12163;49.316;6.092;2022-12-20T03:24:25;49.40;;;20.70;;
23952;SDS011;12163;49.316;6.092;2022-12-20T03:26:52;44.90;;;18.92;;
23952;SDS011;12163;49.316;6.092;2022-12-20T03:29:19;50.63;;;18.10;;
23952;SDS011;12163;49.316;6.092;2022-12-20T03:31:45;41.40;;;20.30;;
23952;SDS011;12163;49.316;6.092;2022-12-20T03:34:12;48.78;;;21.42;;
23952;SDS011;12163;49.316;6.092;2022-12-20T03:36:39;37.05;;;14.48;;
23952;SDS011;12163;49.316;6.092;2022-12-20T03:39:05;26.17;;;13.82;;
23952;SDS011;12163;49.316;6.092;2022-12-20T03:41:32;27.40;;;14.05;;
23952;SDS011;12163;49.316;6.092;2022-12-20T03:43:58;27.40;;;13.70;;
23952;SDS011;12163;49.316;6.092;2022-12-20T03:46:25;34.80;;;15.15;;
23952;SDS011;12163;49.316;6.092;2022-12-20T03:48:53;51.38;;;16.65;;
23952;SDS011;12163;49.316;6.092;2022-12-20T03:51:19;36.08;;;16.38;;
23952;SDS011;12163;49.316;6.092;2022-12-20T03:53:46;36.97;;;17.67;;
23952;SDS011;12163;49.316;6.092;2022-12-20T03:56:12;36.08;;;18.02;;
23952;SDS011;12163;49.316;6.092;2022-12-20T03:58:39;38.40;;;17.08;;
23952;SDS011;12163;49.316;6.092;2022-12-20T04:04:04;48.35;;;17.95;;
23952;SDS011;12163;49.316;6.092;2022-12-20T04:06:31;33.72;;;16.63;;
23952;SDS011;12163;49.316;6.092;2022-12-20T04:08:57;35.95;;;14.63;;
23952;SDS011;12163;49.316;6.092;2022-12-20T04:11:24;35.90;;;14.10;;
23952;SDS011;12163;49.316;6.092;2022-12-20T04:13:52;27.65;;;13.07;;
23952;SDS011;12163;49.316;6.092;2022-12-20T04:16:23;29.48;;;12.95;;
23952;SDS011;12163;49.316;6.092;2022-12-20T04:18:51;35.33;;;14.68;;
23952;SDS011;12163;49.316;6.092;2022-12-20T04:21:22;40.95;;;17.50;;
23952;SDS011;12163;49.316;6.092;2022-12-20T04:23:53;43.00;;;19.30;;
23952;SDS011;12163;49.316;6.092;2022-12-20T04:26:20;45.40;;;16.27;;
23952;SDS011;12163;49.316;6.092;2022-12-20T04:28:47;54.65;;;14.68;;
23952;SDS011;12163;49.316;6.092;2022-12-20T04:31:14;52.13;;;14.13;;
23952;SDS011;12163;49.316;6.092;2022-12-20T04:33:48;42.00;;;12.65;;
23952;SDS011;12163;49.316;6.092;2022-12-20T04:36:15;55.33;;;14.65;;
23952;SDS011;12163;49.316;6.092;2022-12-20T04:38:42;34.95;;;12.43;;
23952;SDS011;12163;49.316;6.092;2022-12-20T04:41:08;34.92;;;13.50;;
23952;SDS011;12163;49.316;6.092;2022-12-20T04:43:36;34.65;;;12.27;;
23952;SDS011;12163;49.316;6.092;2022-12-20T04:46:02;35.70;;;14.05;;
23952;SDS011;12163;49.316;6.092;2022-12-20T04:48:29;58.00;;;22.17;;
23952;SDS011;12163;49.316;6.092;2022-12-20T04:51:15;55.10;;;16.63;;
23952;SDS011;12163;49.316;6.092;2022-12-20T04:53:43;62.53;;;15.20;;
23952;SDS011;12163;49.316;6.092;2022-12-20T04:58:48;45.28;;;13.23;;
23952;SDS011;12163;49.316;6.092;2022-12-20T05:01:17;56.33;;;13.43;;
23952;SDS011;12163;49.316;6.092;2022-12-20T05:03:44;48.22;;;13.93;;
23952;SDS011;12163;49.316;6.092;2022-12-20T05:06:12;56.47;;;15.55;;
23952;SDS011;12163;49.316;6.092;2022-12-20T05:08:39;51.45;;;15.38;;
23952;SDS011;12163;49.316;6.092;2022-12-20T05:11:06;38.45;;;15.23;;
23952;SDS011;12163;49.316;6.092;2022-12-20T05:13:33;46.55;;;15.32;;
23952;SDS011;12163;49.316;6.092;2022-12-20T05:16:00;39.25;;;15.55;;
23952;SDS011;12163;49.316;6.092;2022-12-20T05:18:27;51.35;;;17.75;;
23952;SDS011;12163;49.316;6.092;2022-12-20T05:20:55;43.78;;;16.52;;
23952;SDS011;12163;49.316;6.092;2022-12-20T05:23:41;52.03;;;17.60;;
23952;SDS011;12163;49.316;6.092;2022-12-20T05:26:28;58.03;;;16.20;;
23952;SDS011;12163;49.316;6.092;2022-12-20T05:28:56;46.63;;;16.45;;
23952;SDS011;12163;49.316;6.092;2022-12-20T05:31:23;56.17;;;16.65;;
23952;SDS011;12163;49.316;6.092;2022-12-20T05:33:50;53.38;;;16.33;;
23952;SDS011;12163;49.316;6.092;2022-12-20T05:36:16;50.25;;;14.77;;
23952;SDS011;12163;49.316;6.092;2022-12-20T05:38:43;47.95;;;16.05;;
23952;SDS011;12163;49.316;6.092;2022-12-20T05:41:10;40.63;;;15.10;;
23952;SDS011;12163;49.316;6.092;2022-12-20T05:43:36;38.67;;;15.38;;
23952;SDS011;12163;49.316;6.092;2022-12-20T05:46:03;41.80;;;16.50;;
23952;SDS011;12163;49.316;6.092;2022-12-20T05:48:30;44.67;;;16.58;;
23952;SDS011;12163;49.316;6.092;2022-12-20T05:50:57;37.10;;;16.90;;
23952;SDS011;12163;49.316;6.092;2022-12-20T05:53:24;42.75;;;14.98;;
23952;SDS011;12163;49.316;6.092;2022-12-20T05:55:52;18.73;;;6.00;;
23952;SDS011;12163;49.316;6.092;2022-12-20T05:58:19;24.88;;;6.93;;
23952;SDS011;12163;49.316;6.092;2022-12-20T06:00:46;23.90;;;6.38;;
23952;SDS011;12163;49.316;6.092;2022-12-20T06:03:14;28.17;;;7.75;;
23952;SDS011;12163;49.316;6.092;2022-12-20T06:05:42;24.50;;;8.98;;
23952;SDS011;12163;49.316;6.092;2022-12-20T06:08:09;23.23;;;8.88;;
23952;SDS011;12163;49.316;6.092;2022-12-20T06:10:38;24.67;;;7.65;;
23952;SDS011;12163;49.316;6.092;2022-12-20T06:13:06;30.48;;;7.97;;
23952;SDS011;12163;49.316;6.092;2022-12-20T06:15:33;28.25;;;7.13;;
23952;SDS011;12163;49.316;6.092;2022-12-20T06:18:00;28.00;;;8.30;;
23952;SDS011;12163;49.316;6.092;2022-12-20T06:20:27;35.08;;;8.25;;
23952;SDS011;12163;49.316;6.092;2022-12-20T06:22:53;39.08;;;8.95;;
23952;SDS011;12163;49.316;6.092;2022-12-20T06:25:20;31.98;;;9.40;;
23952;SDS011;12163;49.316;6.092;2022-12-20T06:27:48;41.90;;;11.10;;
23952;SDS011;12163;49.316;6.092;2022-12-20T06:30:14;31.08;;;10.95;;
23952;SDS011;12163;49.316;6.092;2022-12-20T06:32:41;21.30;;;9.77;;
23952;SDS011;12163;49.316;6.092;2022-12-20T06:35:08;31.08;;;11.02;;
23952;SDS011;12163;49.316;6.092;2022-12-20T06:37:35;26.10;;;8.07;;
23952;SDS011;12163;49.316;6.092;2022-12-20T06:40:02;25.58;;;9.13;;
23952;SDS011;12163;49.316;6.092;2022-12-20T06:42:29;33.38;;;10.43;;
23952;SDS011;12163;49.316;6.092;2022-12-20T06:44:56;29.63;;;7.93;;
23952;SDS011;12163;49.316;6.092;2022-12-20T06:47:23;29.70;;;7.50;;
23952;SDS011;12163;49.316;6.092;2022-12-20T06:49:49;31.55;;;7.50;;
23952;SDS011;12163;49.316;6.092;2022-12-20T06:52:16;16.50;;;6.60;;
23952;SDS011;12163;49.316;6.092;2022-12-20T06:54:43;42.90;;;7.53;;
23952;SDS011;12163;49.316;6.092;2022-12-20T06:57:09;38.28;;;8.52;;
23952;SDS011;12163;49.316;6.092;2022-12-20T06:59:36;34.75;;;7.43;;
23952;SDS011;12163;49.316;6.092;2022-12-20T07:02:03;27.17;;;7.65;;
23952;SDS011;12163;49.316;6.092;2022-12-20T07:04:32;27.15;;;7.38;;
23952;SDS011;12163;49.316;6.092;2022-12-20T07:06:59;27.05;;;8.13;;
23952;SDS011;12163;49.316;6.092;2022-12-20T07:09:25;30.45;;;7.15;;
23952;SDS011;12163;49.316;6.092;2022-12-20T07:11:52;30.60;;;7.35;;
23952;SDS011;12163;49.316;6.092;2022-12-20T07:14:19;38.85;;;7.78;;
23952;SDS011;12163;49.316;6.092;2022-12-20T07:16:45;30.55;;;7.75;;
23952;SDS011;12163;49.316;6.092;2022-12-20T07:19:12;33.90;;;7.93;;
23952;SDS011;12163;49.316;6.092;2022-12-20T07:21:41;42.45;;;8.05;;
23952;SDS011;12163;49.316;6.092;2022-12-20T07:24:08;29.13;;;7.22;;
23952;SDS011;12163;49.316;6.092;2022-12-20T07:26:35;45.13;;;8.32;;
23952;SDS011;12163;49.316;6.092;2022-12-20T07:29:02;22.73;;;8.82;;
23952;SDS011;12163;49.316;6.092;2022-12-20T07:31:29;29.55;;;7.55;;
23952;SDS011;12163;49.316;6.092;2022-12-20T07:33:56;36.28;;;8.68;;
23952;SDS011;12163;49.316;6.092;2022-12-20T07:36:22;45.88;;;8.45;;
23952;SDS011;12163;49.316;6.092;2022-12-20T07:38:50;26.58;;;7.80;;
23952;SDS011;12163;49.316;6.092;2022-12-20T07:41:16;45.03;;;9.07;;
23952;SDS011;12163;49.316;6.092;2022-12-20T07:43:44;25.83;;;8.70;;
23952;SDS011;12163;49.316;6.092;2022-12-20T07:46:14;36.88;;;13.27;;
23952;SDS011;12163;49.316;6.092;2022-12-20T07:48:41;64.70;;;28.15;;
23952;SDS011;12163;49.316;6.092;2022-12-20T07:51:09;49.70;;;19.02;;
23952;SDS011;12163;49.316;6.092;2022-12-20T07:56:10;36.67;;;12.25;;
23952;SDS011;12163;49.316;6.092;2022-12-20T07:58:39;36.95;;;10.20;;
23952;SDS011;12163;49.316;6.092;2022-12-20T08:01:08;27.92;;;10.68;;
23952;SDS011;12163;49.316;6.092;2022-12-20T08:03:37;36.10;;;12.63;;
23952;SDS011;12163;49.316;6.092;2022-12-20T08:06:08;29.20;;;10.68;;
23952;SDS011;12163;49.316;6.092;2022-12-20T08:08:35;27.10;;;9.82;;
23952;SDS011;12163;49.316;6.092;2022-12-20T08:11:06;33.08;;;8.98;;
23952;SDS011;12163;49.316;6.092;2022-12-20T08:13:35;33.80;;;8.52;;
23952;SDS011;12163;49.316;6.092;2022-12-20T08:16:11;26.30;;;7.70;;
23952;SDS011;12163;49.316;6.092;2022-12-20T08:18:38;24.23;;;7.63;;
23952;SDS011;12163;49.316;6.092;2022-12-20T08:21:04;27.80;;;8.85;;
23952;SDS011;12163;49.316;6.092;2022-12-20T08:23:31;22.35;;;8.02;;
23952;SDS011;12163;49.316;6.092;2022-12-20T08:26:01;37.65;;;8.90;;
23952;SDS011;12163;49.316;6.092;2022-12-20T08:28:28;31.08;;;8.30;;
23952;SDS011;12163;49.316;6.092;2022-12-20T08:31:04;18.52;;;7.40;;
23952;SDS011;12163;49.316;6.092;2022-12-20T08:33:33;24.20;;;8.60;;
23952;SDS011;12163;49.316;6.092;2022-12-20T08:36:01;26.38;;;11.15;;
23952;SDS011;12163;49.316;6.092;2022-12-20T08:38:29;24.40;;;8.60;;
23952;SDS011;12163;49.316;6.092;2022-12-20T08:41:07;23.58;;;9.27;;
23952;SDS011;12163;49.316;6.092;2022-12-20T08:43:36;26.13;;;8.80;;
23952;SDS011;12163;49.316;6.092;2022-12-20T08:46:04;22.45;;;7.78;;
23952;SDS011;12163;49.316;6.092;2022-12-20T08:48:32;22.73;;;7.63;;
23952;SDS011;12163;49.316;6.092;2022-12-20T08:51:00;21.70;;;8.18;;
23952;SDS011;12163;49.316;6.092;2022-12-20T08:53:28;20.10;;;8.43;;
23952;SDS011;12163;49.316;6.092;2022-12-20T08:58:38;25.17;;;8.45;;
23952;SDS011;12163;49.316;6.092;2022-12-20T09:01:07;31.45;;;8.25;;
23952;SDS011;12163;49.316;6.092;2022-12-20T09:03:37;23.45;;;7.30;;
23952;SDS011;12163;49.316;6.092;2022-12-20T09:06:05;20.17;;;7.88;;
23952;SDS011;12163;49.316;6.092;2022-12-20T09:08:37;20.60;;;7.93;;
23952;SDS011;12163;49.316;6.092;2022-12-20T09:13:39;16.58;;;7.80;;
23952;SDS011;12163;49.316;6.092;2022-12-20T09:16:10;22.67;;;7.85;;
23952;SDS011;12163;49.316;6.092;2022-12-20T09:18:39;17.92;;;8.18;;
23952;SDS011;12163;49.316;6.092;2022-12-20T09:21:07;39.92;;;19.90;;
23952;SDS011;12163;49.316;6.092;2022-12-20T09:23:35;22.30;;;10.85;;
23952;SDS011;12163;49.316;6.092;2022-12-20T09:26:21;22.77;;;12.95;;
23952;SDS011;12163;49.316;6.092;2022-12-20T09:28:49;25.40;;;11.57;;
23952;SDS011;12163;49.316;6.092;2022-12-20T09:31:17;21.80;;;11.02;;
23952;SDS011;12163;49.316;6.092;2022-12-20T09:33:46;34.25;;;14.52;;
23952;SDS011;12163;49.316;6.092;2022-12-20T09:36:14;30.88;;;15.27;;
23952;SDS011;12163;49.316;6.092;2022-12-20T09:38:42;29.40;;;14.20;;
23952;SDS011;12163;49.316;6.092;2022-12-20T09:41:18;24.65;;;12.73;;
23952;SDS011;12163;49.316;6.092;2022-12-20T09:43:52;28.15;;;14.82;;
23952;SDS011;12163;49.316;6.092;2022-12-20T09:46:18;31.40;;;13.88;;
23952;SDS011;12163;49.316;6.092;2022-12-20T09:48:45;37.00;;;23.73;;
23952;SDS011;12163;49.316;6.092;2022-12-20T09:51:17;22.13;;;12.75;;
23952;SDS011;12163;49.316;6.092;2022-12-20T09:56:59;18.38;;;12.25;;
23952;SDS011;12163;49.316;6.092;2022-12-20T09:59:36;25.70;;;12.65;;
23952;SDS011;12163;49.316;6.092;2022-12-20T10:02:15;23.25;;;11.32;;
23952;SDS011;12163;49.316;6.092;2022-12-20T10:05:18;20.25;;;11.20;;
23952;SDS011;12163;49.316;6.092;2022-12-20T10:24:21;24.17;;;12.23;;
23952;SDS011;12163;49.316;6.092;2022-12-20T10:26:52;21.20;;;10.57;;
23952;SDS011;12163;49.316;6.092;2022-12-20T10:29:19;26.85;;;9.57;;
23952;SDS011;12163;49.316;6.092;2022-12-20T10:31:51;18.48;;;9.02;;
23952;SDS011;12163;49.316;6.092;2022-12-20T10:34:24;12.65;;;6.70;;
23952;SDS011;12163;49.316;6.092;2022-12-20T10:37:11;34.60;;;16.30;;
23952;SDS011;12163;49.316;6.092;2022-12-20T10:39:48;14.05;;;5.55;;
23952;SDS011;12163;49.316;6.092;2022-12-20T10:42:35;11.95;;;7.60;;
23952;SDS011;12163;49.316;6.092;2022-12-20T10:47:49;7.53;;;3.60;;
23952;SDS011;12163;49.316;6.092;2022-12-20T10:50:20;6.47;;;3.60;;
23952;SDS011;12163;49.316;6.092;2022-12-20T10:55:44;11.68;;;3.67;;
23952;SDS011;12163;49.316;6.092;2022-12-20T10:58:16;8.70;;;3.78;;
23952;SDS011;12163;49.316;6.092;2022-12-20T11:01:31;14.73;;;4.75;;
23952;SDS011;12163;49.316;6.092;2022-12-20T11:09:27;9.52;;;4.40;;
23952;SDS011;12163;49.316;6.092;2022-12-20T11:12:02;10.93;;;4.93;;
23952;SDS011;12163;49.316;6.092;2022-12-20T11:14:47;14.77;;;5.30;;
23952;SDS011;12163;49.316;6.092;2022-12-20T11:21:02;10.77;;;4.68;;
23952;SDS011;12163;49.316;6.092;2022-12-20T11:25:54;14.65;;;5.57;;
23952;SDS011;12163;49.316;6.092;2022-12-20T11:34:54;12.65;;;6.15;;
23952;SDS011;12163;49.316;6.092;2022-12-20T11:48:56;21.23;;;10.70;;
23952;SDS011;12163;49.316;6.092;2022-12-20T11:54:27;17.08;;;8.60;;
23952;SDS011;12163;49.316;6.092;2022-12-20T11:56:59;14.55;;;6.22;;
23952;SDS011;12163;49.316;6.092;2022-12-20T11:59:34;11.35;;;5.22;;
23952;SDS011;12163;49.316;6.092;2022-12-20T12:02:09;16.45;;;6.05;;
23952;SDS011;12163;49.316;6.092;2022-12-20T12:04:50;7.20;;;4.28;;
23952;SDS011;12163;49.316;6.092;2022-12-20T12:07:23;10.98;;;4.88;;
23952;SDS011;12163;49.316;6.092;2022-12-20T12:10:00;8.23;;;3.90;;
23952;SDS011;12163;49.316;6.092;2022-12-20T12:12:47;9.93;;;3.20;;
23952;SDS011;12163;49.316;6.092;2022-12-20T12:15:27;5.70;;;2.33;;
23952;SDS011;12163;49.316;6.092;2022-12-20T12:18:07;5.72;;;2.65;;
23952;SDS011;12163;49.316;6.092;2022-12-20T12:25:48;7.55;;;1.88;;
23952;SDS011;12163;49.316;6.092;2022-12-20T12:28:15;4.70;;;2.20;;
23952;SDS011;12163;49.316;6.092;2022-12-20T12:30:52;10.32;;;3.50;;
23952;SDS011;12163;49.316;6.092;2022-12-20T12:33:27;11.00;;;4.07;;
23952;SDS011;12163;49.316;6.092;2022-12-20T12:36:15;12.77;;;4.07;;
23952;SDS011;12163;49.316;6.092;2022-12-20T12:41:54;8.27;;;4.35;;
23952;SDS011;12163;49.316;6.092;2022-12-20T12:47:51;9.63;;;3.70;;
23952;SDS011;12163;49.316;6.092;2022-12-20T12:50:23;10.98;;;4.50;;
23952;SDS011;12163;49.316;6.092;2022-12-20T12:52:54;14.10;;;4.65;;
23952;SDS011;12163;49.316;6.092;2022-12-20T12:55:35;15.43;;;5.13;;
23952;SDS011;12163;49.316;6.092;2022-12-20T13:11:33;12.02;;;4.72;;
23952;SDS011;12163;49.316;6.092;2022-12-20T13:16:49;9.32;;;4.13;;
23952;SDS011;12163;49.316;6.092;2022-12-20T13:19:55;7.35;;;4.00;;
23952;SDS011;12163;49.316;6.092;2022-12-20T13:22:23;10.20;;;4.45;;
23952;SDS011;12163;49.316;6.092;2022-12-20T13:24:55;9.98;;;4.50;;
23952;SDS011;12163;49.316;6.092;2022-12-20T13:30:00;16.52;;;5.03;;
23952;SDS011;12163;49.316;6.092;2022-12-20T13:37:55;9.52;;;4.13;;
23952;SDS011;12163;49.316;6.092;2022-12-20T13:40:46;11.45;;;4.30;;
23952;SDS011;12163;49.316;6.092;2022-12-20T13:45:46;9.10;;;4.97;;
23952;SDS011;12163;49.316;6.092;2022-12-20T13:51:29;7.25;;;3.40;;
23952;SDS011;12163;49.316;6.092;2022-12-20T13:53:56;8.05;;;2.60;;
23952;SDS011;12163;49.316;6.092;2022-12-20T13:59:37;6.90;;;3.42;;
23952;SDS011;12163;49.316;6.092;2022-12-20T14:02:00;7.25;;;3.72;;
23952;SDS011;12163;49.316;6.092;2022-12-20T14:04:39;5.10;;;2.40;;
23952;SDS011;12163;49.316;6.092;2022-12-20T14:07:13;8.95;;;2.38;;
23952;SDS011;12163;49.316;6.092;2022-12-20T14:09:44;4.45;;;2.00;;
23952;SDS011;12163;49.316;6.092;2022-12-20T14:12:13;6.72;;;1.95;;
23952;SDS011;12163;49.316;6.092;2022-12-20T14:14:51;5.55;;;2.50;;
23952;SDS011;12163;49.316;6.092;2022-12-20T14:20:28;7.55;;;2.67;;
23952;SDS011;12163;49.316;6.092;2022-12-20T14:25:31;4.38;;;1.85;;
23952;SDS011;12163;49.316;6.092;2022-12-20T14:28:02;5.55;;;2.00;;
23952;SDS011;12163;49.316;6.092;2022-12-20T14:30:40;6.55;;;2.03;;
23952;SDS011;12163;49.316;6.092;2022-12-20T14:35:56;5.10;;;2.00;;
23952;SDS011;12163;49.316;6.092;2022-12-20T14:38:32;9.52;;;2.08;;
23952;SDS011;12163;49.316;6.092;2022-12-20T14:40:59;11.50;;;2.22;;
23952;SDS011;12163;49.316;6.092;2022-12-20T14:43:35;8.27;;;2.92;;
23952;SDS011;12163;49.316;6.092;2022-12-20T14:48:39;8.70;;;3.95;;
23952;SDS011;12163;49.316;6.092;2022-12-20T14:51:05;12.07;;;4.72;;
23952;SDS011;12163;49.316;6.092;2022-12-20T14:53:32;6.90;;;3.47;;
23952;SDS011;12163;49.316;6.092;2022-12-20T14:56:02;10.32;;;3.08;;
23952;SDS011;12163;49.316;6.092;2022-12-20T15:01:02;5.70;;;2.97;;
23952;SDS011;12163;49.316;6.092;2022-12-20T15:03:58;6.53;;;2.88;;
23952;SDS011;12163;49.316;6.092;2022-12-20T15:09:00;9.63;;;2.70;;
23952;SDS011;12163;49.316;6.092;2022-12-20T15:11:26;13.85;;;3.03;;
23952;SDS011;12163;49.316;6.092;2022-12-20T15:13:53;14.98;;;3.65;;
23952;SDS011;12163;49.316;6.092;2022-12-20T15:16:25;32.50;;;5.05;;
23952;SDS011;12163;49.316;6.092;2022-12-20T15:18:58;13.70;;;3.80;;
23952;SDS011;12163;49.316;6.092;2022-12-20T15:21:30;9.95;;;3.30;;
23952;SDS011;12163;49.316;6.092;2022-12-20T15:24:01;6.60;;;2.78;;
23952;SDS011;12163;49.316;6.092;2022-12-20T15:26:33;7.22;;;2.50;;
23952;SDS011;12163;49.316;6.092;2022-12-20T15:29:00;9.60;;;2.58;;
23952;SDS011;12163;49.316;6.092;2022-12-20T15:31:27;7.57;;;2.80;;
23952;SDS011;12163;49.316;6.092;2022-12-20T15:33:59;42.28;;;5.97;;
23952;SDS011;12163;49.316;6.092;2022-12-20T15:36:29;15.20;;;3.45;;
23952;SDS011;12163;49.316;6.092;2022-12-20T15:38:57;16.77;;;3.33;;
23952;SDS011;12163;49.316;6.092;2022-12-20T15:41:42;28.17;;;4.80;;
23952;SDS011;12163;49.316;6.092;2022-12-20T15:44:19;74.88;;;9.65;;
23952;SDS011;12163;49.316;6.092;2022-12-20T15:46:50;58.40;;;7.63;;
23952;SDS011;12163;49.316;6.092;2022-12-20T15:49:19;60.60;;;7.20;;
23952;SDS011;12163;49.316;6.092;2022-12-20T15:51:51;70.75;;;8.73;;
23952;SDS011;12163;49.316;6.092;2022-12-20T15:54:26;81.60;;;9.30;;
23952;SDS011;12163;49.316;6.092;2022-12-20T15:56:55;54.20;;;7.47;;
23952;SDS011;12163;49.316;6.092;2022-12-20T15:59:23;74.10;;;10.10;;
23952;SDS011;12163;49.316;6.092;2022-12-20T16:02:15;71.95;;;8.90;;
23952;SDS011;12163;49.316;6.092;2022-12-20T16:04:46;54.17;;;8.50;;
23952;SDS011;12163;49.316;6.092;2022-12-20T16:07:13;103.57;;;11.98;;
23952;SDS011;12163;49.316;6.092;2022-12-20T16:09:40;133.82;;;12.55;;
23952;SDS011;12163;49.316;6.092;2022-12-20T16:12:12;143.95;;;13.02;;
23952;SDS011;12163;49.316;6.092;2022-12-20T16:14:41;108.90;;;12.95;;
23952;SDS011;12163;49.316;6.092;2022-12-20T16:17:12;75.22;;;9.82;;
23952;SDS011;12163;49.316;6.092;2022-12-20T16:19:40;104.60;;;11.65;;
23952;SDS011;12163;49.316;6.092;2022-12-20T16:22:17;87.20;;;9.45;;
23952;SDS011;12163;49.316;6.092;2022-12-20T16:24:47;79.35;;;10.23;;
23952;SDS011;12163;49.316;6.092;2022-12-20T16:27:14;76.78;;;11.20;;
23952;SDS011;12163;49.316;6.092;2022-12-20T16:29:41;94.03;;;13.98;;
23952;SDS011;12163;49.316;6.092;2022-12-20T16:32:12;108.15;;;13.73;;
23952;SDS011;12163;49.316;6.092;2022-12-20T16:34:43;96.80;;;13.65;;
23952;SDS011;12163;49.316;6.092;2022-12-20T16:37:10;82.68;;;12.25;;
23952;SDS011;12163;49.316;6.092;2022-12-20T16:39:37;117.93;;;14.02;;
23952;SDS011;12163;49.316;6.092;2022-12-20T16:42:11;96.28;;;13.02;;
23952;SDS011;12163;49.316;6.092;2022-12-20T16:44:40;62.13;;;11.18;;
23952;SDS011;12163;49.316;6.092;2022-12-20T16:47:09;64.20;;;12.40;;
23952;SDS011;12163;49.316;6.092;2022-12-20T16:49:36;57.53;;;11.00;;
23952;SDS011;12163;49.316;6.092;2022-12-20T16:52:03;75.55;;;12.88;;
23952;SDS011;12163;49.316;6.092;2022-12-20T16:54:31;94.40;;;15.25;;
23952;SDS011;12163;49.316;6.092;2022-12-20T16:56:58;96.55;;;14.70;;
23952;SDS011;12163;49.316;6.092;2022-12-20T16:59:25;82.47;;;14.35;;
23952;SDS011;12163;49.316;6.092;2022-12-20T17:01:52;84.88;;;13.30;;
23952;SDS011;12163;49.316;6.092;2022-12-20T17:04:21;76.65;;;13.50;;
23952;SDS011;12163;49.316;6.092;2022-12-20T17:06:49;77.72;;;14.98;;
23952;SDS011;12163;49.316;6.092;2022-12-20T17:09:16;80.82;;;14.98;;
23952;SDS011;12163;49.316;6.092;2022-12-20T17:11:43;78.68;;;13.20;;
23952;SDS011;12163;49.316;6.092;2022-12-20T17:14:11;68.43;;;12.55;;